Main page
METAR-TAF:

METAR-TAF

Airports :

Chièvres Air Base

Chièvres, Belgium

latitude: 50-34N, longitude: 003-50E, elevation: 60 m

Current weather observation

The report was made 31 minutes ago, at 14:25 UTC
Wind 14 kt from the North/Northwest
Temperature 18°C
Humidity 45%
Pressure 1029 hPa
Visibility 10 km or more

METAR: EBCV 221425Z AUTO 34014KT 9999 FEW045/// 18/06 Q1029 BLU

Time: 16:56 (14:56 UTC)

Forecast

The report was made 3 hours and 15 minutes ago, at 11:41 UTC
Forecast valid from 22 at 13 UTC to 22 at 22 UTC
Wind 10 kt from the North/Northwest with gusts up to 20 kt
Visibility 10 km or more
Scattered clouds at a height of 3000 ft
Scattered clouds at a height of 23000 ft
Temporary
from 22 at 13 UTC to 22 at 22 UTC
Broken clouds at a height of 3000 ft

TAF: EBCV 221141Z 2213/2222 33010G20KT 9999 SCT030 SCT230 TEMPO 2213/2222 BKN030 BY EBWM

Weather observations and forecasts of more than 4000 airports (METAR and TAF reports).

The available stations are represented by yellow and red dots on the map.

Hover mouse over dot to see the name of the station.

Then click to see weather observations and forecasts.

To change the map : click on the green buttons with a black cross to zoom in, on the green button with a dash to zoom out, or on the green arrows for adjacent maps.


METAR-TAF: